createdAt,value
2018-03-02T00:03:48.131Z,44.13
2018-03-02T00:08:55.886Z,43.35
2018-03-02T00:13:58.978Z,44.55
2018-03-02T00:19:01.886Z,40.63
2018-03-02T00:24:04.883Z,44.42
2018-03-02T00:29:08.914Z,43.93
2018-03-02T00:34:14.583Z,42.10
2018-03-02T00:39:18.402Z,41.30
2018-03-02T00:44:21.209Z,45.13
2018-03-02T00:49:23.998Z,43.03
2018-03-02T00:54:26.851Z,42.03
2018-03-02T00:59:29.646Z,41.73
2018-03-02T01:04:32.495Z,42.73
2018-03-02T01:09:39.744Z,41.90
2018-03-02T01:14:42.537Z,46.10
2018-03-02T01:19:45.373Z,46.20
2018-03-02T01:24:49.026Z,42.53
2018-03-02T01:29:51.960Z,48.08
2018-03-02T01:34:54.787Z,43.03
2018-03-02T01:39:57.617Z,46.35
2018-03-02T01:45:00.481Z,47.85
2018-03-02T01:50:03.313Z,43.17
2018-03-02T01:55:06.185Z,44.67
2018-03-02T02:00:09.364Z,44.35
2018-03-02T02:05:12.162Z,45.40
2018-03-02T02:10:14.959Z,45.20
2018-03-02T02:15:18.084Z,44.63
2018-03-02T02:20:20.891Z,45.20
2018-03-02T02:25:23.723Z,44.67
2018-03-02T02:30:26.552Z,44.03
2018-03-02T02:35:29.393Z,45.05
2018-03-02T02:40:32.296Z,47.45
2018-03-02T02:45:35.931Z,46.13
2018-03-02T02:50:39.510Z,45.15
2018-03-02T02:55:42.828Z,49.10
2018-03-02T03:00:45.696Z,45.27
2018-03-02T03:05:48.497Z,44.87
2018-03-02T03:10:51.410Z,46.33
2018-03-02T03:15:54.629Z,47.33
2018-03-02T03:20:59.295Z,49.97
2018-03-02T03:26:02.898Z,46.88
2018-03-02T03:31:05.685Z,45.67
2018-03-02T03:36:08.596Z,47.47
2018-03-02T03:41:11.452Z,50.30
2018-03-02T03:46:14.594Z,44.38
2018-03-02T03:51:17.701Z,53.53
2018-03-02T03:56:20.910Z,43.67
2018-03-02T04:01:23.770Z,47.40
2018-03-02T04:06:26.626Z,49.27
2018-03-02T04:11:29.881Z,45.10
2018-03-02T04:16:33.048Z,45.47
2018-03-02T04:21:36.654Z,48.95
2018-03-02T04:26:39.638Z,45.03
2018-03-02T04:31:43.703Z,43.47
2018-03-02T04:37:05.676Z,49.92
2018-03-02T04:42:08.598Z,45.37
2018-03-02T04:47:13.038Z,47.80
2018-03-02T04:52:16.456Z,46.88
2018-03-02T04:57:20.048Z,46.30
2018-03-02T05:02:25.074Z,45.92
2018-03-02T05:07:31.486Z,50.95
2018-03-02T05:12:34.353Z,47.30
2018-03-02T05:17:39.243Z,48.95
2018-03-02T05:22:42.085Z,50.00
2018-03-02T05:27:45.517Z,49.83
2018-03-02T05:32:49.287Z,43.83
2018-03-02T05:37:54.391Z,47.47
2018-03-02T05:42:57.252Z,50.57
2018-03-02T05:48:01.632Z,48.87
2018-03-02T05:53:05.317Z,47.65
2018-03-02T05:58:08.191Z,48.85
2018-03-02T06:03:11.033Z,50.97
2018-03-02T06:08:13.979Z,49.90
2018-03-02T06:13:16.905Z,45.43
2018-03-02T06:18:20.477Z,47.58
2018-03-02T06:23:23.473Z,47.87
2018-03-02T06:28:26.388Z,47.50
2018-03-02T06:33:29.276Z,48.72
2018-03-02T06:38:32.148Z,47.42
2018-03-02T06:43:35.127Z,51.88
2018-03-02T06:48:38.025Z,46.70
2018-03-02T06:53:41.716Z,47.60
2018-03-02T06:58:44.708Z,50.67
2018-03-02T07:03:47.596Z,46.22
2018-03-02T07:08:53.636Z,48.42
2018-03-02T07:14:14.519Z,49.70
2018-03-02T07:19:19.984Z,51.77
2018-03-02T07:24:23.502Z,50.30
2018-03-02T07:29:29.174Z,53.50
2018-03-02T07:34:32.390Z,49.53
2018-03-02T07:39:36.038Z,49.90
2018-03-02T07:44:39.268Z,49.40
2018-03-02T07:49:42.639Z,45.70
2018-03-02T07:54:46.632Z,49.30
2018-03-02T07:59:49.516Z,48.17
2018-03-02T08:04:52.403Z,47.80
2018-03-02T08:09:55.292Z,46.90
2018-03-02T08:14:58.152Z,48.53
2018-03-02T08:20:02.086Z,58.60
2018-03-02T08:25:06.996Z,46.33
2018-03-02T08:30:09.975Z,49.78
2018-03-02T08:35:12.850Z,49.47
2018-03-02T08:40:16.510Z,44.97
2018-03-02T08:45:19.873Z,42.93
2018-03-02T08:50:22.786Z,46.20
2018-03-02T08:55:25.631Z,47.22
2018-03-02T09:00:28.555Z,47.70
2018-03-02T09:05:31.655Z,47.50
2018-03-02T09:10:35.245Z,50.33
2018-03-02T09:15:39.548Z,48.33
2018-03-02T09:20:42.404Z,49.40
2018-03-02T09:25:45.332Z,61.10
2018-03-02T09:30:52.491Z,50.05
2018-03-02T09:35:55.545Z,47.03
2018-03-02T09:41:00.172Z,50.78
2018-03-02T09:46:03.184Z,50.40
2018-03-02T09:51:05.979Z,50.47
2018-03-02T09:56:10.324Z,47.70
2018-03-02T10:01:13.618Z,48.70
2018-03-02T10:06:16.461Z,48.60
2018-03-02T10:11:19.280Z,50.83
2018-03-02T10:16:23.348Z,49.35
2018-03-02T10:21:26.290Z,44.33
2018-03-02T10:26:30.330Z,51.20
2018-03-02T10:31:34.056Z,49.03
2018-03-02T10:36:37.560Z,50.67
2018-03-02T10:41:41.171Z,48.05
2018-03-02T10:46:44.388Z,50.00
2018-03-02T10:51:47.271Z,49.97
2018-03-02T10:56:51.649Z,50.22
2018-03-02T11:01:58.180Z,45.35
2018-03-02T11:12:40.402Z,48.73
2018-03-02T11:17:43.348Z,46.72
2018-03-02T11:22:46.950Z,49.08
2018-03-02T11:27:49.833Z,45.53
2018-03-02T11:32:53.712Z,47.85
2018-03-02T11:37:56.605Z,46.58
2018-03-02T11:42:59.392Z,49.22
2018-03-02T11:48:03.051Z,45.53
2018-03-02T11:58:14.532Z,47.67
2018-03-02T12:08:29.203Z,47.60
2018-03-02T12:13:32.118Z,45.73
2018-03-02T12:18:35.049Z,45.95
2018-03-02T12:23:38.254Z,44.30
2018-03-02T12:28:41.126Z,43.53
2018-03-02T12:33:44.301Z,48.33
2018-03-02T12:38:47.929Z,45.20
2018-03-02T12:43:50.839Z,48.58
2018-03-02T12:48:53.820Z,47.90
2018-03-02T12:53:58.218Z,45.77
2018-03-02T12:59:01.735Z,44.30
2018-03-02T13:04:04.649Z,46.55
2018-03-02T13:09:07.891Z,45.45
2018-03-02T13:14:10.727Z,46.95
2018-03-02T13:19:14.075Z,46.80
2018-03-02T13:24:18.764Z,51.33
2018-03-02T13:29:22.104Z,49.78
2018-03-02T13:34:39.565Z,50.58
2018-03-02T13:39:53.959Z,47.27
2018-03-02T13:44:57.735Z,45.53
2018-03-02T13:50:05.390Z,48.87
2018-03-02T13:55:09.768Z,45.05
2018-03-02T14:00:13.008Z,45.20
2018-03-02T14:05:16.308Z,45.37
2018-03-02T14:10:20.587Z,48.25
2018-03-02T14:15:23.460Z,46.67
2018-03-02T14:20:26.309Z,49.27
2018-03-02T14:25:29.130Z,45.55
2018-03-02T14:30:32.758Z,90.18
2018-03-02T14:35:35.896Z,45.28
2018-03-02T14:40:38.809Z,51.78
2018-03-02T14:45:41.640Z,51.67
2018-03-02T14:50:44.498Z,45.22
2018-03-02T14:55:47.389Z,46.53
2018-03-02T15:00:50.231Z,48.33
2018-03-02T15:05:53.476Z,51.50
2018-03-02T15:10:58.519Z,50.35
2018-03-02T15:16:01.588Z,47.72
2018-03-02T15:21:04.405Z,51.70
2018-03-02T15:26:07.960Z,59.33
2018-03-02T15:31:10.802Z,48.92
2018-03-02T15:36:13.591Z,50.97
2018-03-02T15:41:16.506Z,56.70
2018-03-02T15:46:19.354Z,62.88
2018-03-02T15:51:22.811Z,54.10
2018-03-02T15:56:25.913Z,51.33
2018-03-02T16:01:28.716Z,52.97
2018-03-02T16:06:32.557Z,52.33
2018-03-02T16:11:35.702Z,53.58
2018-03-02T16:16:38.852Z,53.05
2018-03-02T16:21:41.697Z,54.50
2018-03-02T16:26:44.614Z,53.70
2018-03-02T16:31:47.403Z,54.00
2018-03-02T16:36:50.321Z,51.13
2018-03-02T16:41:53.097Z,53.17
2018-03-02T16:46:55.954Z,54.00
2018-03-02T16:51:59.559Z,53.38
2018-03-02T16:57:02.446Z,52.28
2018-03-02T17:02:05.406Z,51.65
2018-03-02T17:07:09.769Z,54.40
2018-03-02T17:12:12.693Z,51.30
2018-03-02T17:17:15.591Z,48.78
2018-03-02T17:22:19.361Z,58.13
2018-03-02T17:27:23.030Z,53.97
2018-03-02T17:32:26.751Z,51.07
2018-03-02T17:37:29.922Z,50.42
2018-03-02T17:42:33.224Z,50.00
2018-03-02T17:47:46.012Z,52.73
2018-03-02T17:52:48.888Z,51.63
2018-03-02T17:57:57.859Z,53.87
2018-03-02T18:03:00.741Z,52.05
2018-03-02T18:08:03.574Z,51.47
2018-03-02T18:13:06.385Z,52.00
2018-03-02T18:18:10.187Z,52.37
2018-03-02T18:23:15.089Z,53.67
2018-03-02T18:33:33.043Z,59.13
2018-03-02T18:38:37.479Z,76.72
2018-03-02T18:43:43.359Z,51.07
2018-03-02T18:54:24.485Z,59.57
2018-03-02T18:59:27.669Z,55.70
2018-03-02T19:04:31.558Z,50.22
2018-03-02T19:09:34.625Z,57.30
2018-03-02T19:14:37.471Z,56.97
2018-03-02T19:19:40.253Z,57.40
2018-03-02T19:24:43.059Z,64.47
2018-03-02T19:29:45.954Z,59.30
2018-03-02T19:34:49.006Z,68.87
2018-03-02T19:39:52.986Z,59.15
2018-03-02T19:44:56.058Z,163.83
2018-03-02T19:49:59.247Z,84.68
2018-03-02T19:55:02.954Z,63.67
2018-03-02T20:00:07.905Z,60.77
2018-03-02T20:05:11.864Z,57.73
2018-03-02T20:10:15.772Z,56.37
2018-03-02T20:15:19.367Z,54.33
2018-03-02T20:20:22.549Z,55.75
2018-03-02T20:25:26.431Z,61.20
2018-03-02T20:30:30.424Z,61.50
2018-03-02T20:35:39.047Z,59.47
2018-03-02T20:40:55.562Z,57.83
2018-03-02T20:46:01.418Z,64.25
2018-03-02T20:51:05.385Z,72.65
2018-03-02T20:56:10.916Z,71.18
2018-03-02T21:01:13.773Z,68.40
2018-03-02T21:06:16.953Z,72.35
2018-03-02T21:11:20.700Z,71.67
2018-03-02T21:16:24.832Z,75.80
2018-03-02T21:21:30.959Z,79.17
2018-03-02T21:26:35.915Z,78.97
2018-03-02T21:31:38.808Z,75.03
2018-03-02T21:36:42.671Z,83.75
2018-03-02T21:41:46.244Z,85.23
2018-03-02T21:47:09.256Z,83.53
2018-03-02T21:52:14.688Z,90.77
2018-03-02T21:57:22.460Z,88.90
2018-03-02T22:02:38.140Z,89.43
2018-03-02T22:07:58.763Z,96.93
2018-03-02T22:13:04.886Z,93.60
2018-03-02T22:18:07.705Z,95.65
2018-03-02T22:23:11.290Z,87.27
2018-03-02T22:28:15.344Z,84.45
2018-03-02T22:33:19.684Z,87.97
2018-03-02T22:38:23.635Z,87.85
2018-03-02T22:43:26.545Z,87.35
2018-03-02T22:48:29.380Z,85.30
2018-03-02T22:53:32.150Z,83.97
2018-03-02T22:58:34.977Z,88.93
2018-03-02T23:03:37.914Z,86.90
2018-03-02T23:08:40.767Z,90.70
2018-03-02T23:13:44.178Z,92.20
2018-03-02T23:18:47.373Z,87.20
2018-03-02T23:29:18.407Z,88.18
2018-03-02T23:34:21.933Z,86.37
2018-03-02T23:39:25.939Z,90.28
2018-03-02T23:44:28.735Z,93.43
2018-03-02T23:49:31.787Z,90.95
2018-03-02T23:54:34.912Z,86.82
2018-03-02T23:59:38.226Z,94.20
